createdAt,value
2022-08-17T00:00:00.540Z,47
2022-08-17T00:01:05.315Z,52
2022-08-17T00:03:59.967Z,71
2022-08-17T00:05:04.357Z,72
2022-08-17T00:06:08.715Z,84
2022-08-17T00:07:25.848Z,86
2022-08-17T00:08:40.616Z,86
2022-08-17T00:09:47.773Z,83
2022-08-17T00:11:12.380Z,83
2022-08-17T00:14:47.511Z,82
2022-08-17T00:15:51.879Z,79
2022-08-17T00:16:57.154Z,75
2022-08-17T00:20:04.215Z,62
2022-08-17T00:21:10.316Z,59
2022-08-17T00:22:33.336Z,59
2022-08-17T00:26:44.219Z,42
2022-08-17T00:29:58.907Z,44
2022-08-17T00:31:06.359Z,39
2022-08-17T00:33:10.392Z,45
2022-08-17T00:36:41.400Z,40
2022-08-17T00:38:13.163Z,39
2022-08-17T00:40:58.922Z,34
2022-08-17T00:42:01.942Z,36
2022-08-17T00:45:45.039Z,33
2022-08-17T00:46:49.195Z,38
2022-08-17T00:48:07.247Z,39
2022-08-17T00:50:46.756Z,43
2022-08-17T00:51:56.242Z,41
2022-08-17T00:53:00.363Z,49
2022-08-17T00:54:04.654Z,49
2022-08-17T00:57:07.465Z,58
2022-08-17T00:58:19.943Z,55
2022-08-17T00:59:25.153Z,54
2022-08-17T01:00:39.605Z,54
2022-08-17T01:01:45.744Z,53
2022-08-17T01:02:51.198Z,56
2022-08-17T01:03:55.659Z,51
2022-08-17T01:04:59.731Z,40
2022-08-17T01:06:04.042Z,44
2022-08-17T01:07:08.315Z,46
2022-08-17T01:08:12.503Z,37
2022-08-17T01:09:31.879Z,47
2022-08-17T01:10:58.079Z,45
2022-08-17T01:11:55.590Z,58
2022-08-17T01:13:15.001Z,59
2022-08-17T01:15:02.871Z,60
2022-08-17T01:16:07.310Z,59
2022-08-17T01:17:16.715Z,62
2022-08-17T01:18:31.066Z,59
2022-08-17T01:19:37.317Z,57
2022-08-17T01:21:07.112Z,54
2022-08-17T01:22:11.239Z,54
2022-08-17T01:23:48.851Z,46
2022-08-17T01:24:54.318Z,48
2022-08-17T01:27:49.050Z,35
2022-08-17T01:29:13.738Z,28
2022-08-17T01:30:57.539Z,34
2022-08-17T01:31:47.951Z,27
2022-08-17T01:32:52.413Z,33
2022-08-17T01:34:12.014Z,36
2022-08-17T01:35:26.414Z,35
2022-08-17T01:36:37.834Z,33
2022-08-17T01:37:42.274Z,42
2022-08-17T01:38:46.471Z,48
2022-08-17T01:40:11.084Z,51
2022-08-17T01:43:02.187Z,53
2022-08-17T01:44:16.938Z,52
2022-08-17T01:45:41.823Z,52
2022-08-17T01:46:46.974Z,55
2022-08-17T01:47:51.218Z,47
2022-08-17T01:48:55.586Z,49
2022-08-17T01:49:59.822Z,49
2022-08-17T01:51:21.474Z,49
2022-08-17T01:52:25.719Z,47
2022-08-17T01:53:29.938Z,45
2022-08-17T01:54:34.279Z,52
2022-08-17T01:55:38.642Z,46
2022-08-17T01:57:05.924Z,48
2022-08-17T01:58:10.206Z,52
2022-08-17T01:59:19.646Z,41
2022-08-17T02:00:25.944Z,45
2022-08-17T02:01:30.177Z,39
2022-08-17T02:04:20.774Z,44
2022-08-17T02:05:25.214Z,50
2022-08-17T02:06:30.669Z,47
2022-08-17T02:07:48.045Z,42
2022-08-17T02:08:56.971Z,39
2022-08-17T02:12:38.614Z,44
2022-08-17T02:13:20.710Z,38
2022-08-17T02:14:25.311Z,41
2022-08-17T02:15:30.450Z,43
2022-08-17T02:18:20.190Z,38
2022-08-17T02:19:24.546Z,46
2022-08-17T02:20:41.430Z,44
2022-08-17T02:21:51.964Z,47
2022-08-17T02:24:59.210Z,44
2022-08-17T02:25:36.774Z,47
2022-08-17T02:26:40.971Z,42
2022-08-17T02:27:48.362Z,43
2022-08-17T02:28:52.655Z,41
2022-08-17T02:29:57.019Z,51
2022-08-17T02:31:03.079Z,38
2022-08-17T02:32:37.252Z,42
2022-08-17T02:34:07.224Z,55
2022-08-17T02:35:11.551Z,52
2022-08-17T02:36:15.886Z,44
2022-08-17T02:37:21.238Z,54
2022-08-17T02:38:55.921Z,40
2022-08-17T02:40:00.360Z,46
2022-08-17T02:41:04.808Z,49
2022-08-17T02:42:08.906Z,43
2022-08-17T02:43:13.035Z,41
2022-08-17T02:44:39.561Z,38
2022-08-17T02:45:27.058Z,38
2022-08-17T02:46:31.206Z,35
2022-08-17T02:48:07.854Z,34
2022-08-17T02:49:12.123Z,40
2022-08-17T02:50:16.310Z,36
2022-08-17T02:51:20.595Z,33
2022-08-17T02:52:57.335Z,33
2022-08-17T02:54:41.009Z,41
2022-08-17T02:55:13.494Z,36
2022-08-17T02:56:42.179Z,44
2022-08-17T02:59:33.806Z,42
2022-08-17T03:00:40.912Z,53
2022-08-17T03:02:05.399Z,51
2022-08-17T03:03:37.120Z,59
2022-08-17T03:04:43.686Z,49
2022-08-17T03:05:47.932Z,49
2022-08-17T03:06:52.118Z,63
2022-08-17T03:08:22.094Z,65
2022-08-17T03:09:26.292Z,68
2022-08-17T03:10:30.476Z,60
2022-08-17T03:11:34.703Z,63
2022-08-17T03:12:42.540Z,63
2022-08-17T03:13:46.851Z,65
2022-08-17T03:14:58.337Z,70
2022-08-17T03:16:08.775Z,69
2022-08-17T03:17:28.571Z,71
2022-08-17T03:18:46.301Z,76
2022-08-17T03:19:50.495Z,86
2022-08-17T03:20:54.803Z,87
2022-08-17T03:22:35.833Z,93
2022-08-17T03:23:54.545Z,93
2022-08-17T03:25:43.475Z,101
2022-08-17T03:26:47.379Z,99
2022-08-17T03:28:12.103Z,97
2022-08-17T03:29:16.415Z,100
2022-08-17T03:32:11.468Z,100
2022-08-17T03:33:25.959Z,93
2022-08-17T03:34:50.492Z,93
2022-08-17T03:35:57.053Z,91
2022-08-17T03:37:01.492Z,90
2022-08-17T03:38:05.659Z,94
2022-08-17T03:39:27.296Z,92
2022-08-17T03:40:34.686Z,86
2022-08-17T03:41:46.771Z,96
2022-08-17T03:42:51.148Z,103
2022-08-17T03:45:56.103Z,99
2022-08-17T03:47:05.249Z,97
2022-08-17T03:48:18.424Z,93
2022-08-17T03:49:44.150Z,92
2022-08-17T03:51:12.747Z,94
2022-08-17T03:52:18.412Z,83
2022-08-17T03:53:52.374Z,86
2022-08-17T03:55:18.239Z,87
2022-08-17T03:56:28.808Z,84
2022-08-17T03:57:38.204Z,79
2022-08-17T03:58:42.480Z,78
2022-08-17T03:59:46.650Z,75
2022-08-17T04:01:02.406Z,79
2022-08-17T04:02:06.568Z,76
2022-08-17T04:03:23.280Z,77
2022-08-17T04:04:28.528Z,73
2022-08-17T04:05:32.796Z,79
2022-08-17T04:06:42.393Z,80
2022-08-17T04:08:11.173Z,79
2022-08-17T04:09:15.288Z,80
2022-08-17T04:10:38.363Z,88
2022-08-17T04:11:46.768Z,88
2022-08-17T04:13:03.420Z,89
2022-08-17T04:14:07.744Z,88
2022-08-17T04:15:12.144Z,89
2022-08-17T04:18:20.299Z,83
2022-08-17T04:19:24.572Z,82
2022-08-17T04:20:39.069Z,77
2022-08-17T04:23:35.952Z,73
2022-08-17T04:24:40.273Z,71
2022-08-17T04:28:05.287Z,74
2022-08-17T04:29:09.720Z,81
2022-08-17T04:33:30.384Z,87
2022-08-17T04:34:34.719Z,90
2022-08-17T04:35:50.911Z,95
2022-08-17T04:37:11.136Z,96
2022-08-17T04:38:15.448Z,96
2022-08-17T04:39:19.575Z,98
2022-08-17T04:40:25.938Z,98
2022-08-17T04:43:40.952Z,106
2022-08-17T04:44:45.112Z,106
2022-08-17T04:45:57.108Z,100
2022-08-17T04:47:00.635Z,100
2022-08-17T04:48:06.178Z,104
2022-08-17T04:49:30.991Z,110
2022-08-17T04:50:35.131Z,116
2022-08-17T04:51:46.698Z,118
2022-08-17T04:54:44.311Z,130
2022-08-17T04:55:48.552Z,130
2022-08-17T04:56:53.663Z,129
2022-08-17T05:00:02.288Z,127
2022-08-17T05:01:07.076Z,132
2022-08-17T05:06:33.673Z,120
2022-08-17T05:07:48.474Z,117
2022-08-17T05:08:58.031Z,117
2022-08-17T05:11:38.660Z,120
2022-08-17T05:12:43.075Z,120
2022-08-17T05:14:02.875Z,125
2022-08-17T05:15:07.183Z,121
2022-08-17T05:16:23.943Z,125
2022-08-17T05:17:38.236Z,122
2022-08-17T05:18:52.217Z,128
2022-08-17T05:20:08.340Z,122
2022-08-17T05:21:12.664Z,117
2022-08-17T05:23:53.264Z,114
2022-08-17T05:24:56.222Z,116
2022-08-17T05:26:00.439Z,126
2022-08-17T05:27:06.079Z,120
2022-08-17T05:28:15.248Z,125
2022-08-17T05:30:56.746Z,140
2022-08-17T05:32:37.660Z,142
2022-08-17T05:36:53.444Z,139
2022-08-17T05:38:07.772Z,141
2022-08-17T05:39:19.228Z,135
2022-08-17T05:40:33.799Z,137
2022-08-17T05:41:38.056Z,142
2022-08-17T05:42:54.372Z,144
2022-08-17T05:44:05.200Z,141
2022-08-17T05:45:09.481Z,144
2022-08-17T05:48:14.396Z,138
2022-08-17T05:49:34.871Z,145
2022-08-17T05:50:46.348Z,145
2022-08-17T05:52:01.040Z,146
2022-08-17T05:53:20.841Z,140
2022-08-17T05:54:44.284Z,146
2022-08-17T05:55:59.052Z,137
2022-08-17T05:57:09.064Z,138
2022-08-17T05:58:28.655Z,137
2022-08-17T05:59:43.101Z,131
2022-08-17T06:00:52.684Z,136
2022-08-17T06:02:05.064Z,141
2022-08-17T06:03:14.553Z,144
2022-08-17T06:04:42.069Z,139
2022-08-17T06:05:54.301Z,140
2022-08-17T06:07:06.616Z,137
2022-08-17T06:08:16.088Z,132
2022-08-17T06:09:33.098Z,130
2022-08-17T06:10:40.819Z,118
2022-08-17T06:11:45.213Z,123
2022-08-17T06:12:57.727Z,127
2022-08-17T06:14:22.144Z,128
2022-08-17T06:15:31.428Z,130
2022-08-17T06:16:35.668Z,133
2022-08-17T06:19:15.132Z,126
2022-08-17T06:20:30.784Z,130
2022-08-17T06:21:40.439Z,133
2022-08-17T06:22:54.959Z,128
2022-08-17T06:24:04.444Z,129
2022-08-17T06:25:13.801Z,126
2022-08-17T06:26:17.904Z,121
2022-08-17T06:27:33.364Z,108
2022-08-17T06:28:42.816Z,98
2022-08-17T06:30:08.232Z,101
2022-08-17T06:31:12.561Z,91
2022-08-17T06:32:33.345Z,83
2022-08-17T06:33:52.939Z,85
2022-08-17T06:35:02.321Z,70
2022-08-17T06:36:09.445Z,65
2022-08-17T06:37:14.172Z,71
2022-08-17T06:38:37.312Z,65
2022-08-17T06:39:46.406Z,56
2022-08-17T06:40:55.591Z,46
2022-08-17T06:42:10.092Z,45
2022-08-17T06:47:07.602Z,30
2022-08-17T06:48:19.848Z,32
2022-08-17T06:49:31.982Z,32
2022-08-17T06:50:46.461Z,32
2022-08-17T06:51:55.809Z,36
2022-08-17T06:53:10.344Z,34
2022-08-17T06:54:40.040Z,38
2022-08-17T06:55:50.540Z,33
2022-08-17T06:57:02.752Z,34
2022-08-17T06:58:17.014Z,37
2022-08-17T06:59:54.393Z,33
2022-08-17T07:01:03.300Z,35
2022-08-17T07:02:10.426Z,33
2022-08-17T07:03:14.764Z,32
2022-08-17T07:04:29.351Z,28
2022-08-17T07:05:33.843Z,37
2022-08-17T07:06:48.460Z,42
2022-08-17T07:08:19.036Z,34
2022-08-17T07:11:19.864Z,35
2022-08-17T07:12:42.298Z,28
2022-08-17T07:14:37.017Z,29
2022-08-17T07:15:56.483Z,32
2022-08-17T07:17:02.128Z,26
2022-08-17T07:18:09.445Z,30
2022-08-17T07:19:13.932Z,25
2022-08-17T07:20:18.267Z,31
2022-08-17T07:21:52.936Z,25
2022-08-17T07:23:02.439Z,29
2022-08-17T07:24:29.321Z,32
2022-08-17T07:25:34.455Z,30
2022-08-17T07:26:38.697Z,33
2022-08-17T07:27:53.163Z,30
2022-08-17T07:29:07.676Z,35
2022-08-17T07:30:12.303Z,34
2022-08-17T07:31:20.444Z,37
2022-08-17T07:32:30.491Z,30
2022-08-17T07:33:47.620Z,33
2022-08-17T07:35:01.929Z,25
2022-08-17T07:36:34.871Z,28
2022-08-17T07:37:39.152Z,26
2022-08-17T07:38:56.523Z,32
2022-08-17T07:40:15.643Z,38
2022-08-17T07:41:52.995Z,42
2022-08-17T07:42:36.720Z,46
2022-08-17T07:43:51.367Z,37
2022-08-17T07:45:16.284Z,30
2022-08-17T07:46:31.134Z,33
2022-08-17T07:47:45.799Z,33
2022-08-17T07:48:57.311Z,29
2022-08-17T07:51:55.455Z,26
2022-08-17T07:52:59.731Z,37
2022-08-17T07:54:14.975Z,36
2022-08-17T07:55:26.620Z,30
2022-08-17T07:56:32.558Z,37
2022-08-17T07:57:36.741Z,33
2022-08-17T07:58:41.199Z,38
2022-08-17T07:59:45.748Z,28
2022-08-17T08:00:55.364Z,35
2022-08-17T08:02:18.054Z,33
2022-08-17T08:03:28.424Z,32
2022-08-17T08:07:41.128Z,36
2022-08-17T08:09:10.965Z,32
2022-08-17T08:12:15.926Z,60
2022-08-17T08:13:25.808Z,66
2022-08-17T08:14:30.264Z,66
2022-08-17T08:17:41.935Z,35
2022-08-17T08:18:55.124Z,33
2022-08-17T08:20:19.771Z,32
2022-08-17T08:21:10.608Z,29
2022-08-17T08:22:17.987Z,46
2022-08-17T08:23:22.491Z,44
2022-08-17T08:24:34.613Z,41
2022-08-17T08:25:52.202Z,41
2022-08-17T08:27:03.327Z,39
2022-08-17T08:28:18.017Z,36
2022-08-17T08:29:29.411Z,30
2022-08-17T08:30:54.899Z,28
2022-08-17T08:32:16.404Z,46
2022-08-17T08:33:26.071Z,43
2022-08-17T08:34:44.687Z,45
2022-08-17T08:35:56.051Z,44
2022-08-17T08:37:16.134Z,39
2022-08-17T08:38:23.609Z,34
2022-08-17T08:39:37.323Z,39
2022-08-17T08:40:49.595Z,49
2022-08-17T08:41:54.147Z,38
2022-08-17T08:43:03.547Z,43
2022-08-17T08:44:19.267Z,40
2022-08-17T08:45:32.524Z,42
2022-08-17T08:46:47.148Z,41
2022-08-17T08:47:56.505Z,42
2022-08-17T08:49:45.483Z,43
2022-08-17T08:50:48.047Z,30
2022-08-17T08:52:00.201Z,27
2022-08-17T08:53:05.011Z,31
2022-08-17T08:54:17.543Z,45
2022-08-17T08:55:29.780Z,53
2022-08-17T08:56:49.791Z,34
2022-08-17T08:57:51.467Z,41
2022-08-17T08:58:56.035Z,33
2022-08-17T09:00:05.539Z,55
2022-08-17T09:01:20.281Z,66
2022-08-17T09:02:34.776Z,71
2022-08-17T09:03:53.015Z,71
2022-08-17T09:05:15.457Z,77
2022-08-17T09:06:28.781Z,70
2022-08-17T09:07:33.108Z,84
2022-08-17T09:08:45.631Z,80
2022-08-17T09:09:59.260Z,56
2022-08-17T09:11:18.619Z,70
2022-08-17T09:12:22.968Z,69
2022-08-17T09:13:35.364Z,62
2022-08-17T09:14:49.876Z,59
2022-08-17T09:15:59.301Z,52
2022-08-17T09:17:22.899Z,47
2022-08-17T09:19:04.272Z,34
2022-08-17T09:20:12.110Z,31
2022-08-17T09:21:33.754Z,35
2022-08-17T09:22:42.292Z,43
2022-08-17T09:24:20.644Z,49
2022-08-17T09:25:34.572Z,50
2022-08-17T09:26:49.387Z,42
2022-08-17T09:28:00.613Z,39
2022-08-17T09:30:20.557Z,36
2022-08-17T09:31:33.200Z,40
2022-08-17T09:32:39.851Z,32
2022-08-17T09:33:45.195Z,45
2022-08-17T09:36:41.167Z,38
2022-08-17T09:38:04.363Z,32
2022-08-17T09:39:19.089Z,37
2022-08-17T09:40:31.343Z,31
2022-08-17T09:41:48.498Z,39
2022-08-17T09:43:10.739Z,42
2022-08-17T09:44:22.623Z,34
2022-08-17T09:45:31.063Z,35
2022-08-17T09:46:43.332Z,30
2022-08-17T09:48:02.487Z,25
2022-08-17T09:49:09.411Z,31
2022-08-17T09:50:55.871Z,28
2022-08-17T09:51:39.696Z,29
2022-08-17T09:53:12.484Z,53
2022-08-17T09:54:37.912Z,69
2022-08-17T09:55:26.884Z,57
2022-08-17T09:56:43.859Z,60
2022-08-17T09:57:54.399Z,64
2022-08-17T09:59:03.880Z,59
2022-08-17T10:00:11.000Z,52
2022-08-17T10:02:02.203Z,55
2022-08-17T10:03:28.122Z,64
2022-08-17T10:04:35.220Z,50
2022-08-17T10:05:56.394Z,49
2022-08-17T10:07:10.787Z,46
2022-08-17T10:08:25.437Z,52
2022-08-17T10:09:33.379Z,58
2022-08-17T10:10:42.879Z,85
2022-08-17T10:12:09.239Z,93
2022-08-17T10:13:17.680Z,87
2022-08-17T10:14:37.138Z,100
2022-08-17T10:15:44.478Z,97
2022-08-17T10:17:22.214Z,106
2022-08-17T10:18:34.878Z,103
2022-08-17T10:19:44.056Z,99
2022-08-17T10:22:40.751Z,83
2022-08-17T10:23:55.703Z,84
2022-08-17T10:25:21.924Z,87
2022-08-17T10:26:19.840Z,65
2022-08-17T10:27:44.538Z,71
2022-08-17T10:28:58.278Z,62
2022-08-17T10:30:07.933Z,64
2022-08-17T10:32:27.466Z,86
2022-08-17T10:33:49.644Z,83
2022-08-17T10:34:53.978Z,82
2022-08-17T10:36:34.082Z,79
2022-08-17T10:37:43.581Z,84
2022-08-17T10:38:53.591Z,84
2022-08-17T10:40:03.138Z,81
2022-08-17T10:41:18.022Z,82
2022-08-17T10:42:51.329Z,77
2022-08-17T10:44:39.161Z,71
2022-08-17T10:45:10.099Z,63
2022-08-17T10:46:50.463Z,63
2022-08-17T10:48:13.550Z,58
2022-08-17T10:49:27.698Z,59
2022-08-17T10:52:27.479Z,53
2022-08-17T10:53:32.359Z,56
2022-08-17T10:54:47.150Z,70
2022-08-17T10:55:51.767Z,30
2022-08-17T10:57:06.552Z,45
2022-08-17T10:58:16.260Z,45
2022-08-17T10:59:22.774Z,42
2022-08-17T11:00:32.210Z,40
2022-08-17T11:01:53.006Z,36
2022-08-17T11:03:10.795Z,37
2022-08-17T11:04:21.290Z,46
2022-08-17T11:05:29.828Z,37
2022-08-17T11:06:44.631Z,37
2022-08-17T11:07:59.070Z,37
2022-08-17T11:09:06.418Z,34
2022-08-17T11:10:21.167Z,35
2022-08-17T11:11:35.618Z,33
2022-08-17T11:12:50.743Z,38
2022-08-17T11:14:05.213Z,34
2022-08-17T11:15:31.967Z,41
2022-08-17T11:16:38.629Z,48
2022-08-17T11:17:54.163Z,40
2022-08-17T11:19:06.431Z,28
2022-08-17T11:20:43.450Z,27
2022-08-17T11:21:58.070Z,25
2022-08-17T11:23:07.547Z,32
2022-08-17T11:24:17.158Z,38
2022-08-17T11:25:22.394Z,44
2022-08-17T11:26:34.888Z,49
2022-08-17T11:27:39.096Z,47
2022-08-17T11:28:43.757Z,43
2022-08-17T11:29:52.060Z,57
2022-08-17T11:30:59.262Z,59
2022-08-17T11:32:11.109Z,63
2022-08-17T11:33:14.022Z,65
2022-08-17T11:34:28.609Z,64
2022-08-17T11:35:33.009Z,64
2022-08-17T11:37:00.333Z,61
2022-08-17T11:38:13.944Z,32
2022-08-17T11:39:22.109Z,50
2022-08-17T11:40:52.111Z,53
2022-08-17T11:42:06.633Z,43
2022-08-17T11:43:19.573Z,25
2022-08-17T11:44:34.134Z,25
2022-08-17T11:45:51.607Z,31
2022-08-17T11:47:03.822Z,31
2022-08-17T11:48:27.566Z,52
2022-08-17T11:49:41.161Z,63
2022-08-17T11:51:00.743Z,60
2022-08-17T11:52:13.047Z,71
2022-08-17T11:53:28.230Z,48
2022-08-17T11:54:37.861Z,63
2022-08-17T11:55:58.745Z,62
2022-08-17T11:57:03.078Z,70
2022-08-17T11:58:17.646Z,71
2022-08-17T11:59:51.568Z,72
2022-08-17T12:01:01.168Z,79
2022-08-17T12:02:05.570Z,93
2022-08-17T12:03:20.119Z,102
2022-08-17T12:04:32.403Z,92
2022-08-17T12:05:46.818Z,97
2022-08-17T12:06:50.986Z,93
2022-08-17T12:08:05.753Z,70
2022-08-17T12:11:55.006Z,63
2022-08-17T12:12:47.949Z,56
2022-08-17T12:14:17.823Z,48
2022-08-17T12:15:19.609Z,53
2022-08-17T12:16:33.229Z,45
2022-08-17T12:17:40.066Z,38
2022-08-17T12:18:42.239Z,32
2022-08-17T12:19:49.662Z,42
2022-08-17T12:20:56.714Z,46
2022-08-17T12:22:34.028Z,45
2022-08-17T12:23:44.225Z,51
2022-08-17T12:24:53.885Z,34
2022-08-17T12:28:32.000Z,58
2022-08-17T12:29:38.950Z,71
2022-08-17T12:31:49.368Z,76
2022-08-17T12:33:09.265Z,72
2022-08-17T12:34:14.029Z,69
2022-08-17T12:35:24.045Z,70
2022-08-17T12:36:51.617Z,70
2022-08-17T12:37:55.987Z,77
2022-08-17T12:39:13.125Z,65
2022-08-17T12:40:13.815Z,63
2022-08-17T12:41:18.117Z,59
2022-08-17T12:42:46.345Z,80
2022-08-17T12:43:54.005Z,63
2022-08-17T12:44:58.360Z,61
2022-08-17T12:46:08.427Z,61
2022-08-17T12:47:15.760Z,49
2022-08-17T12:48:17.568Z,41
2022-08-17T12:49:32.465Z,69
2022-08-17T12:50:38.164Z,72
2022-08-17T12:51:43.912Z,80
2022-08-17T12:52:48.298Z,78
2022-08-17T12:53:52.632Z,82
2022-08-17T12:54:56.756Z,79
2022-08-17T12:56:06.500Z,92
2022-08-17T12:57:11.109Z,64
2022-08-17T12:58:26.557Z,62
2022-08-17T12:59:34.708Z,66
2022-08-17T13:00:49.400Z,58
2022-08-17T13:02:01.553Z,77
2022-08-17T13:03:17.077Z,91
2022-08-17T13:04:21.374Z,75
2022-08-17T13:05:25.988Z,85
2022-08-17T13:06:40.521Z,78
2022-08-17T13:08:06.225Z,82
2022-08-17T13:09:15.365Z,65
2022-08-17T13:10:27.479Z,66
2022-08-17T13:11:41.168Z,72
2022-08-17T13:12:58.557Z,81
2022-08-17T13:14:05.634Z,86
2022-08-17T13:15:14.962Z,81
2022-08-17T13:16:29.530Z,73
2022-08-17T13:19:29.961Z,66
2022-08-17T13:20:29.186Z,69
2022-08-17T13:21:44.010Z,84
2022-08-17T13:23:12.333Z,94
2022-08-17T13:24:15.557Z,92
2022-08-17T13:25:39.988Z,91
2022-08-17T13:26:44.554Z,98
2022-08-17T13:28:01.908Z,99
2022-08-17T13:29:51.127Z,94
2022-08-17T13:30:53.181Z,85
2022-08-17T13:32:11.605Z,89
2022-08-17T13:33:43.765Z,73
2022-08-17T13:34:32.209Z,77
2022-08-17T13:35:41.707Z,58
2022-08-17T13:36:46.157Z,54
2022-08-17T13:38:13.117Z,65
2022-08-17T13:39:17.329Z,85
2022-08-17T13:40:32.709Z,73
2022-08-17T13:41:43.485Z,72
2022-08-17T13:42:50.510Z,73
2022-08-17T13:44:02.642Z,82
2022-08-17T13:45:31.125Z,59
2022-08-17T13:46:29.521Z,72
2022-08-17T13:47:34.525Z,64
2022-08-17T13:48:44.050Z,77
2022-08-17T13:49:56.393Z,74
2022-08-17T13:51:11.273Z,56
2022-08-17T13:52:25.694Z,51
2022-08-17T13:53:44.693Z,52
2022-08-17T13:54:55.584Z,54
2022-08-17T13:55:58.209Z,62
2022-08-17T13:57:02.548Z,61
2022-08-17T13:58:11.814Z,67
2022-08-17T13:59:53.955Z,64
2022-08-17T14:00:48.569Z,63
2022-08-17T14:01:54.293Z,75
2022-08-17T14:02:58.284Z,74
2022-08-17T14:04:02.996Z,82
2022-08-17T14:05:11.145Z,80
2022-08-17T14:06:23.749Z,72
2022-08-17T14:07:45.602Z,82
2022-08-17T14:09:04.186Z,70
2022-08-17T14:11:58.772Z,73
2022-08-17T14:13:18.417Z,85
2022-08-17T14:14:40.134Z,74
2022-08-17T14:15:53.818Z,76
2022-08-17T14:16:56.177Z,52
2022-08-17T14:18:00.392Z,55
2022-08-17T14:19:20.180Z,51
2022-08-17T14:20:26.724Z,55
2022-08-17T14:21:33.718Z,62
2022-08-17T14:22:55.293Z,60
2022-08-17T14:25:59.913Z,81
2022-08-17T14:27:04.089Z,79
2022-08-17T14:28:13.595Z,92
2022-08-17T14:31:08.432Z,86
2022-08-17T14:32:13.017Z,91
2022-08-17T14:33:43.070Z,92
2022-08-17T14:34:47.333Z,77
2022-08-17T14:35:51.701Z,74
2022-08-17T14:37:16.210Z,84
2022-08-17T14:38:25.609Z,88
2022-08-17T14:39:30.268Z,65
2022-08-17T14:40:34.401Z,69
2022-08-17T14:41:49.293Z,74
2022-08-17T14:42:53.938Z,76
2022-08-17T14:43:58.433Z,78
2022-08-17T14:45:03.957Z,74
2022-08-17T14:46:29.338Z,72
2022-08-17T14:47:35.813Z,72
2022-08-17T14:48:40.461Z,74
2022-08-17T14:49:47.618Z,85
2022-08-17T14:52:49.001Z,91
2022-08-17T14:54:25.664Z,79
2022-08-17T14:55:33.329Z,93
2022-08-17T14:56:57.022Z,76
2022-08-17T14:58:24.865Z,76
2022-08-17T14:59:31.474Z,77
2022-08-17T15:00:35.758Z,99
2022-08-17T15:01:55.622Z,90
2022-08-17T15:03:00.906Z,76
2022-08-17T15:04:25.674Z,61
2022-08-17T15:05:29.991Z,61
2022-08-17T15:06:34.681Z,55
2022-08-17T15:11:04.628Z,54
2022-08-17T15:12:33.005Z,58
2022-08-17T15:13:52.112Z,66
2022-08-17T15:14:45.516Z,66
2022-08-17T15:15:51.078Z,56
2022-08-17T15:16:55.697Z,61
2022-08-17T15:18:00.287Z,62
2022-08-17T15:19:04.298Z,65
2022-08-17T15:20:12.753Z,64
2022-08-17T15:21:16.270Z,75
2022-08-17T15:22:36.795Z,79
2022-08-17T15:23:41.166Z,63
2022-08-17T15:24:55.497Z,55
2022-08-17T15:25:59.613Z,57
2022-08-17T15:27:31.493Z,67
2022-08-17T15:28:31.042Z,73
2022-08-17T15:29:35.531Z,89
2022-08-17T15:31:32.059Z,98
2022-08-17T15:32:38.505Z,102
2022-08-17T15:33:46.409Z,87
2022-08-17T15:35:06.312Z,84
2022-08-17T15:36:10.914Z,70
2022-08-17T15:37:15.310Z,77
2022-08-17T15:38:47.275Z,85
2022-08-17T15:40:05.439Z,88
2022-08-17T15:41:10.217Z,76
2022-08-17T15:42:34.901Z,74
2022-08-17T15:43:39.286Z,93
2022-08-17T15:44:43.867Z,84
2022-08-17T15:45:52.946Z,75
2022-08-17T15:46:52.267Z,90
2022-08-17T15:48:01.515Z,118
2022-08-17T15:49:10.914Z,93
2022-08-17T15:50:31.713Z,98
2022-08-17T15:51:36.326Z,101
2022-08-17T15:53:06.357Z,103
2022-08-17T15:54:22.671Z,98
2022-08-17T15:55:35.479Z,95
2022-08-17T15:56:41.205Z,106
2022-08-17T15:57:45.761Z,107
2022-08-17T16:01:18.409Z,120
2022-08-17T16:03:06.198Z,115
2022-08-17T16:03:46.610Z,132
2022-08-17T16:04:39.142Z,131
2022-08-17T16:05:43.804Z,127
2022-08-17T16:06:53.403Z,122
2022-08-17T16:07:57.674Z,110
2022-08-17T16:09:06.405Z,122
2022-08-17T16:10:35.530Z,122
2022-08-17T16:11:36.450Z,117
2022-08-17T16:13:01.022Z,125
2022-08-17T16:14:05.306Z,122
2022-08-17T16:16:44.762Z,119
2022-08-17T16:20:09.790Z,118
2022-08-17T16:21:14.046Z,123
2022-08-17T16:24:12.937Z,120
2022-08-17T16:25:14.381Z,106
2022-08-17T16:26:21.993Z,104
2022-08-17T16:27:26.417Z,105
2022-08-17T16:28:40.681Z,106
2022-08-17T16:30:13.655Z,106
2022-08-17T16:31:14.453Z,114
2022-08-17T16:32:19.021Z,126
2022-08-17T16:33:33.409Z,123
2022-08-17T16:34:39.926Z,124
2022-08-17T16:35:47.381Z,117
2022-08-17T16:37:02.322Z,115
2022-08-17T16:38:07.633Z,114
2022-08-17T16:40:52.071Z,113
2022-08-17T16:41:56.454Z,131
2022-08-17T16:43:01.584Z,121
2022-08-17T16:44:20.189Z,114
2022-08-17T16:45:41.186Z,111
2022-08-17T16:46:47.376Z,106
2022-08-17T16:48:01.962Z,108
2022-08-17T16:49:06.059Z,118
2022-08-17T16:50:10.117Z,127
2022-08-17T16:51:24.565Z,121
2022-08-17T16:52:32.339Z,128
2022-08-17T16:53:33.484Z,129
2022-08-17T16:54:54.421Z,136
2022-08-17T16:55:58.771Z,120
2022-08-17T16:57:28.845Z,115
2022-08-17T16:59:09.176Z,125
2022-08-17T17:00:09.713Z,131
2022-08-17T17:01:29.778Z,125
2022-08-17T17:02:49.635Z,123
2022-08-17T17:04:04.002Z,111
2022-08-17T17:05:08.148Z,110
2022-08-17T17:06:22.933Z,117
2022-08-17T17:07:32.285Z,109
2022-08-17T17:08:44.911Z,110
2022-08-17T17:09:54.105Z,110
2022-08-17T17:11:22.180Z,113
2022-08-17T17:12:35.020Z,122
2022-08-17T17:13:33.938Z,111
2022-08-17T17:14:43.200Z,125
2022-08-17T17:16:26.913Z,126
2022-08-17T17:17:36.229Z,125
2022-08-17T17:20:24.912Z,130
2022-08-17T17:21:40.317Z,124
2022-08-17T17:22:57.573Z,126
2022-08-17T17:24:09.620Z,124
2022-08-17T17:25:13.729Z,123
2022-08-17T17:26:20.865Z,126
2022-08-17T17:29:17.368Z,122
2022-08-17T17:30:29.809Z,118
2022-08-17T17:31:44.481Z,128
2022-08-17T17:33:05.981Z,131
2022-08-17T17:34:16.193Z,135
2022-08-17T17:35:20.645Z,140
2022-08-17T17:36:30.121Z,145
2022-08-17T17:38:04.697Z,141
2022-08-17T17:39:31.047Z,115
2022-08-17T17:40:40.558Z,100
2022-08-17T17:41:54.968Z,88
2022-08-17T17:43:37.475Z,74
2022-08-17T17:44:40.408Z,63
2022-08-17T17:45:44.597Z,64
2022-08-17T17:47:20.217Z,52
2022-08-17T17:50:49.709Z,61
2022-08-17T17:52:18.524Z,51
2022-08-17T17:53:34.799Z,27
2022-08-17T17:54:37.356Z,30
2022-08-17T17:55:47.792Z,32
2022-08-17T17:57:00.254Z,45
2022-08-17T17:58:14.526Z,53
2022-08-17T17:59:31.745Z,75
2022-08-17T18:00:41.192Z,73
2022-08-17T18:01:55.813Z,60
2022-08-17T18:03:07.949Z,49
2022-08-17T18:04:27.582Z,60
2022-08-17T18:05:32.056Z,55
2022-08-17T18:06:51.516Z,58
2022-08-17T18:08:18.437Z,71
2022-08-17T18:09:35.536Z,79
2022-08-17T18:10:50.879Z,76
2022-08-17T18:12:03.291Z,70
2022-08-17T18:13:13.184Z,78
2022-08-17T18:14:32.813Z,78
2022-08-17T18:15:42.128Z,62
2022-08-17T18:17:15.037Z,60
2022-08-17T18:21:09.376Z,52
2022-08-17T18:22:22.514Z,60
2022-08-17T18:23:28.538Z,78
2022-08-17T18:24:31.433Z,81
2022-08-17T18:25:38.381Z,76
2022-08-17T18:26:48.164Z,87
2022-08-17T18:28:26.117Z,85
2022-08-17T18:29:32.460Z,81
2022-08-17T18:30:39.302Z,91
2022-08-17T18:31:44.641Z,84
2022-08-17T18:32:53.306Z,89
2022-08-17T18:33:58.020Z,94
2022-08-17T18:35:04.528Z,101
2022-08-17T18:36:08.940Z,105
2022-08-17T18:37:30.192Z,103
2022-08-17T18:38:53.033Z,108
2022-08-17T18:40:07.616Z,119
2022-08-17T18:41:17.008Z,115
2022-08-17T18:42:35.139Z,102
2022-08-17T18:43:44.565Z,95
2022-08-17T18:44:55.221Z,99
2022-08-17T18:45:59.184Z,102
2022-08-17T18:47:13.589Z,98
2022-08-17T18:48:32.824Z,99
2022-08-17T18:51:26.245Z,107
2022-08-17T18:53:47.152Z,111
2022-08-17T18:55:01.771Z,114
2022-08-17T18:56:31.140Z,104
2022-08-17T18:57:40.808Z,108
2022-08-17T18:58:45.088Z,111
2022-08-17T18:59:52.570Z,111
2022-08-17T19:00:56.668Z,110
2022-08-17T19:02:16.205Z,114
2022-08-17T19:03:15.560Z,114
2022-08-17T19:04:50.481Z,107
2022-08-17T19:06:02.653Z,121
2022-08-17T19:07:17.254Z,118
2022-08-17T19:08:26.696Z,114
2022-08-17T19:09:31.568Z,126
2022-08-17T19:12:42.834Z,117
2022-08-17T19:13:57.332Z,115
2022-08-17T19:18:42.424Z,109
2022-08-17T19:19:54.555Z,110